createdAt,value
2022-08-30T00:01:24.363Z,3.37
2022-08-30T00:03:54.996Z,2.97
2022-08-30T00:06:24.371Z,3.30
2022-08-30T00:08:53.308Z,3.87
2022-08-30T00:11:24.905Z,3.30
2022-08-30T00:13:54.218Z,3.13
2022-08-30T00:16:23.668Z,3.57
2022-08-30T00:18:52.428Z,3.07
2022-08-30T00:21:20.671Z,3.10
2022-08-30T00:23:48.929Z,2.83
2022-08-30T00:26:17.173Z,3.63
2022-08-30T00:28:46.833Z,3.67
2022-08-30T00:31:15.417Z,3.07
2022-08-30T00:33:43.856Z,3.57
2022-08-30T00:36:12.110Z,3.23
2022-08-30T00:38:40.358Z,3.47
2022-08-30T00:41:08.949Z,3.37
2022-08-30T00:43:37.748Z,3.30
2022-08-30T00:46:08.623Z,2.70
2022-08-30T00:48:40.848Z,3.47
2022-08-30T00:51:09.726Z,4.03
2022-08-30T00:53:39.566Z,3.40
2022-08-30T00:56:08.193Z,3.47
2022-08-30T00:58:38.467Z,3.17
2022-08-30T01:01:08.673Z,2.97
2022-08-30T01:03:37.763Z,3.57
2022-08-30T01:06:07.526Z,3.20
2022-08-30T01:08:36.267Z,3.10
2022-08-30T01:11:04.939Z,3.60
2022-08-30T01:13:35.467Z,3.23
2022-08-30T01:16:04.211Z,2.97
2022-08-30T01:18:34.136Z,3.50
2022-08-30T01:21:06.855Z,3.20
2022-08-30T01:23:38.410Z,3.43
2022-08-30T01:26:07.003Z,3.33
2022-08-30T01:28:35.804Z,3.07
2022-08-30T01:31:04.215Z,3.40
2022-08-30T01:33:32.606Z,3.10
2022-08-30T01:36:02.339Z,3.10
2022-08-30T01:38:32.179Z,3.47
2022-08-30T01:41:02.259Z,3.33
2022-08-30T01:43:30.486Z,3.60
2022-08-30T01:45:58.782Z,2.87
2022-08-30T01:48:30.922Z,3.57
2022-08-30T01:50:59.788Z,3.27
2022-08-30T01:53:28.063Z,3.43
2022-08-30T01:55:56.283Z,3.13
2022-08-30T01:58:25.999Z,3.50
2022-08-30T02:00:54.326Z,3.40
2022-08-30T02:03:22.774Z,3.70
2022-08-30T02:05:51.080Z,3.27
2022-08-30T02:08:19.293Z,3.20
2022-08-30T02:10:47.538Z,3.33
2022-08-30T02:13:15.861Z,3.67
2022-08-30T02:15:45.550Z,3.20
2022-08-30T02:18:13.760Z,3.87
2022-08-30T02:20:42.008Z,3.03
2022-08-30T02:23:10.240Z,3.13
2022-08-30T02:25:38.490Z,3.50
2022-08-30T02:28:07.024Z,3.13
2022-08-30T02:30:36.787Z,3.80
2022-08-30T02:33:06.799Z,3.80
2022-08-30T02:35:35.408Z,3.67
2022-08-30T02:38:03.669Z,3.10
2022-08-30T02:40:32.039Z,3.60
2022-08-30T02:43:00.383Z,2.90
2022-08-30T02:45:28.896Z,3.43
2022-08-30T02:47:57.488Z,3.47
2022-08-30T02:50:27.414Z,3.23
2022-08-30T02:52:55.723Z,3.03
2022-08-30T02:55:24.138Z,3.40
2022-08-30T02:57:52.358Z,3.57
2022-08-30T03:00:21.583Z,3.43
2022-08-30T03:02:50.265Z,3.47
2022-08-30T03:05:19.818Z,3.60
2022-08-30T03:07:49.576Z,3.70
2022-08-30T03:10:18.212Z,3.60
2022-08-30T03:12:47.838Z,3.30
2022-08-30T03:15:17.101Z,3.23
2022-08-30T03:17:45.367Z,3.40
2022-08-30T03:20:13.946Z,2.93
2022-08-30T03:22:42.187Z,3.70
2022-08-30T03:25:11.971Z,3.40
2022-08-30T03:27:40.207Z,3.50
2022-08-30T03:30:09.333Z,3.00
2022-08-30T03:32:37.701Z,3.33
2022-08-30T03:35:06.503Z,3.07
2022-08-30T03:37:35.191Z,3.10
2022-08-30T03:40:04.026Z,3.00
2022-08-30T03:42:33.663Z,3.60
2022-08-30T03:45:02.355Z,3.00
2022-08-30T03:47:30.940Z,3.53
2022-08-30T03:49:59.236Z,3.03
2022-08-30T03:52:28.326Z,3.63
2022-08-30T03:54:56.547Z,3.40
2022-08-30T03:57:25.566Z,3.77
2022-08-30T03:59:55.214Z,3.40
2022-08-30T04:02:23.565Z,3.00
2022-08-30T04:04:51.824Z,3.30
2022-08-30T04:07:20.154Z,3.30
2022-08-30T04:09:48.531Z,3.30
2022-08-30T04:12:18.419Z,3.10
2022-08-30T04:14:51.187Z,3.60
2022-08-30T04:17:21.216Z,3.70
2022-08-30T04:19:49.466Z,3.90
2022-08-30T04:22:17.947Z,3.27
2022-08-30T04:24:46.194Z,3.70
2022-08-30T04:27:14.450Z,3.70
2022-08-30T04:29:43.792Z,3.27
2022-08-30T04:32:12.028Z,3.47
2022-08-30T04:34:41.672Z,3.80
2022-08-30T04:37:10.085Z,3.70
2022-08-30T04:39:38.869Z,3.37
2022-08-30T04:42:08.473Z,3.53
2022-08-30T04:44:36.729Z,3.33
2022-08-30T04:47:05.024Z,3.30
2022-08-30T04:49:33.238Z,3.30
2022-08-30T04:52:02.913Z,3.47
2022-08-30T04:54:31.127Z,3.63
2022-08-30T04:56:59.351Z,3.10
2022-08-30T04:59:27.706Z,3.50
2022-08-30T05:01:56.147Z,3.20
2022-08-30T05:04:24.441Z,3.47
2022-08-30T05:06:52.900Z,3.13
2022-08-30T05:09:22.553Z,3.73
2022-08-30T05:11:50.838Z,3.43
2022-08-30T05:14:19.090Z,3.10
2022-08-30T05:16:47.344Z,3.87
2022-08-30T05:19:15.595Z,3.67
2022-08-30T05:21:43.903Z,3.57
2022-08-30T05:24:12.144Z,3.30
2022-08-30T05:26:41.764Z,3.70
2022-08-30T05:29:10.052Z,3.40
2022-08-30T05:31:38.597Z,3.83
2022-08-30T05:34:06.848Z,3.20
2022-08-30T05:36:35.952Z,3.57
2022-08-30T05:39:05.757Z,3.30
2022-08-30T05:41:34.183Z,3.57
2022-08-30T05:44:04.612Z,3.60
2022-08-30T05:49:08.749Z,3.80
2022-08-30T05:51:42.925Z,3.83
2022-08-30T05:54:12.315Z,3.47
2022-08-30T05:56:41.723Z,3.43
2022-08-30T05:59:11.357Z,4.23
2022-08-30T06:01:40.767Z,3.63
2022-08-30T06:04:09.814Z,3.87
2022-08-30T06:06:39.200Z,3.50
2022-08-30T06:09:08.395Z,3.93
2022-08-30T06:11:36.695Z,4.07
2022-08-30T06:14:05.311Z,3.50
2022-08-30T06:16:35.541Z,3.80
2022-08-30T06:19:03.843Z,3.50
2022-08-30T06:21:34.116Z,3.73
2022-08-30T06:24:02.821Z,3.80
2022-08-30T06:29:04.391Z,4.30
2022-08-30T06:31:32.608Z,3.60
2022-08-30T06:34:02.392Z,4.37
2022-08-30T06:36:30.617Z,3.80
2022-08-30T06:38:59.621Z,4.33
2022-08-30T06:41:33.561Z,4.40
2022-08-30T06:44:02.732Z,4.17
2022-08-30T06:46:33.305Z,3.93
2022-08-30T06:49:04.147Z,4.23
2022-08-30T06:51:32.991Z,3.80
2022-08-30T06:54:03.255Z,3.80
2022-08-30T06:56:31.731Z,3.53
2022-08-30T06:59:00.337Z,3.17
2022-08-30T07:01:29.603Z,3.25
2022-08-30T07:03:58.433Z,3.45
2022-08-30T07:06:28.568Z,3.25
2022-08-30T07:08:56.844Z,3.03
2022-08-30T07:11:32.060Z,3.15
2022-08-30T07:14:00.766Z,2.90
2022-08-30T07:16:29.211Z,2.80
2022-08-30T07:18:58.572Z,3.17
2022-08-30T07:21:29.933Z,2.92
2022-08-30T07:23:59.050Z,2.83
2022-08-30T07:26:28.673Z,2.90
2022-08-30T07:28:58.216Z,3.03
2022-08-30T07:31:26.513Z,2.67
2022-08-30T07:33:54.884Z,3.03
2022-08-30T07:36:23.911Z,3.10
2022-08-30T07:38:54.447Z,2.77
2022-08-30T07:41:23.774Z,3.00
2022-08-30T07:43:52.048Z,2.73
2022-08-30T07:46:20.735Z,2.70
2022-08-30T07:48:49.216Z,3.03
2022-08-30T07:51:18.838Z,2.67
2022-08-30T07:53:47.458Z,2.50
2022-08-30T07:56:17.085Z,2.93
2022-08-30T07:58:45.309Z,2.90
2022-08-30T08:01:14.647Z,2.60
2022-08-30T08:03:44.137Z,2.40
2022-08-30T08:06:13.365Z,2.63
2022-08-30T08:08:42.361Z,2.90
2022-08-30T08:11:12.992Z,2.43
2022-08-30T08:13:52.653Z,2.53
2022-08-30T08:16:23.399Z,2.77
2022-08-30T08:18:51.764Z,3.00
2022-08-30T08:21:20.049Z,2.58
2022-08-30T08:23:48.306Z,2.15
2022-08-30T08:26:16.569Z,2.95
2022-08-30T08:28:47.112Z,2.92
2022-08-30T08:31:16.114Z,2.72
2022-08-30T08:33:44.380Z,2.83
2022-08-30T08:36:12.943Z,2.90
2022-08-30T08:38:41.176Z,2.75
2022-08-30T08:41:12.826Z,2.90
2022-08-30T08:43:41.324Z,2.72
2022-08-30T08:46:15.749Z,2.67
2022-08-30T08:48:59.597Z,2.90
2022-08-30T08:51:47.802Z,3.20
2022-08-30T08:54:18.066Z,2.92
2022-08-30T08:56:46.422Z,2.85
2022-08-30T08:59:16.743Z,3.20
2022-08-30T09:01:46.702Z,3.38
2022-08-30T09:04:17.341Z,2.80
2022-08-30T09:06:52.253Z,2.90
2022-08-30T09:09:22.217Z,2.92
2022-08-30T09:11:51.265Z,2.92
2022-08-30T09:14:21.318Z,2.90
2022-08-30T09:16:52.665Z,3.10
2022-08-30T09:19:34.333Z,2.80
2022-08-30T09:22:04.524Z,3.08
2022-08-30T09:24:39.782Z,2.95
2022-08-30T09:27:23.916Z,2.53
2022-08-30T09:29:57.304Z,3.13
2022-08-30T09:32:29.069Z,2.60
2022-08-30T09:34:57.381Z,2.75
2022-08-30T09:37:35.551Z,2.80
2022-08-30T09:40:09.896Z,2.72
2022-08-30T09:42:39.172Z,2.70
2022-08-30T09:45:12.514Z,3.00
2022-08-30T09:47:43.612Z,2.88
2022-08-30T09:50:12.923Z,3.13
2022-08-30T09:52:53.226Z,2.58
2022-08-30T09:55:28.895Z,2.75
2022-08-30T09:58:02.366Z,3.03
2022-08-30T10:00:34.180Z,2.95
2022-08-30T10:03:26.134Z,2.92
2022-08-30T10:06:07.676Z,2.75
2022-08-30T10:08:41.416Z,2.88
2022-08-30T10:11:15.564Z,2.90
2022-08-30T10:13:49.071Z,2.70
2022-08-30T10:16:23.770Z,2.72
2022-08-30T10:18:58.446Z,2.90
2022-08-30T10:21:28.844Z,2.63
2022-08-30T10:24:00.302Z,2.50
2022-08-30T10:26:30.363Z,2.60
2022-08-30T10:29:01.104Z,2.77
2022-08-30T10:31:32.564Z,2.63
2022-08-30T10:34:04.573Z,2.40
2022-08-30T10:36:35.426Z,2.70
2022-08-30T10:39:04.256Z,2.33
2022-08-30T10:41:37.395Z,2.57
2022-08-30T10:44:08.253Z,2.57
2022-08-30T10:46:48.652Z,2.70
2022-08-30T10:49:20.537Z,2.37
2022-08-30T10:51:52.648Z,2.40
2022-08-30T10:54:24.676Z,2.90
2022-08-30T10:56:53.192Z,3.13
2022-08-30T10:59:22.321Z,2.73
2022-08-30T11:01:59.795Z,2.67
2022-08-30T11:04:56.250Z,2.40
2022-08-30T11:07:30.374Z,2.80
2022-08-30T11:10:06.672Z,2.70
2022-08-30T11:12:37.570Z,2.43
2022-08-30T11:15:17.722Z,2.53
2022-08-30T11:17:56.561Z,2.90
2022-08-30T11:23:29.107Z,2.97
2022-08-30T11:26:02.629Z,2.40
2022-08-30T11:28:50.308Z,2.47
2022-08-30T11:31:30.371Z,2.30
2022-08-30T11:33:59.524Z,2.63
2022-08-30T11:36:53.009Z,2.70
2022-08-30T11:39:36.369Z,3.13
2022-08-30T11:42:14.088Z,2.90
2022-08-30T11:44:42.419Z,2.60
2022-08-30T11:47:26.006Z,3.00
2022-08-30T11:49:59.429Z,2.93
2022-08-30T11:52:33.055Z,3.30
2022-08-30T11:55:07.627Z,2.80
2022-08-30T11:57:43.364Z,2.67
2022-08-30T12:00:15.065Z,2.77
2022-08-30T12:02:49.219Z,2.87
2022-08-30T12:05:38.135Z,3.10
2022-08-30T12:08:07.708Z,3.20
2022-08-30T12:10:38.869Z,2.60
2022-08-30T12:13:08.991Z,2.80
2022-08-30T12:15:52.426Z,2.97
2022-08-30T12:18:28.618Z,2.80
2022-08-30T12:21:00.596Z,2.80
2022-08-30T12:23:35.243Z,2.80
2022-08-30T12:26:17.795Z,3.10
2022-08-30T12:28:51.264Z,2.90
2022-08-30T12:31:21.278Z,2.97
2022-08-30T12:33:51.798Z,2.83
2022-08-30T12:36:33.277Z,2.80
2022-08-30T12:39:15.836Z,2.80
2022-08-30T12:41:45.172Z,2.83
2022-08-30T12:44:16.593Z,2.77
2022-08-30T12:46:48.291Z,2.80
2022-08-30T12:49:17.793Z,2.90
2022-08-30T12:51:46.210Z,2.60
2022-08-30T12:54:16.973Z,2.80
2022-08-30T12:57:19.143Z,2.93
2022-08-30T12:59:56.752Z,2.90
2022-08-30T13:02:28.933Z,2.90
2022-08-30T13:04:58.457Z,2.60
2022-08-30T13:07:32.650Z,3.00
2022-08-30T13:10:03.601Z,2.97
2022-08-30T13:12:31.967Z,2.97
2022-08-30T13:15:18.854Z,3.10
2022-08-30T13:17:48.400Z,2.90
2022-08-30T13:20:27.837Z,3.20
2022-08-30T13:23:03.383Z,3.00
2022-08-30T13:25:32.881Z,2.53
2022-08-30T13:28:01.608Z,2.73
2022-08-30T13:30:31.412Z,2.80
2022-08-30T13:33:01.203Z,3.00
2022-08-30T13:35:31.274Z,2.77
2022-08-30T13:37:59.884Z,3.07
2022-08-30T13:40:28.207Z,3.00
2022-08-30T13:42:56.482Z,2.73
2022-08-30T13:45:42.855Z,2.90
2022-08-30T13:48:13.441Z,3.10
2022-08-30T13:50:42.898Z,2.73
2022-08-30T13:53:11.563Z,2.80
2022-08-30T13:55:41.302Z,2.90
2022-08-30T13:58:09.713Z,3.00
2022-08-30T14:00:41.711Z,2.63
2022-08-30T14:03:10.009Z,3.10
2022-08-30T14:06:33.536Z,3.07
2022-08-30T14:08:46.249Z,3.10
2022-08-30T14:11:18.923Z,3.23
2022-08-30T14:16:36.841Z,2.83
2022-08-30T14:19:05.883Z,3.20
2022-08-30T14:21:37.137Z,3.60
2022-08-30T14:24:06.607Z,3.00
2022-08-30T14:26:35.838Z,3.50
2022-08-30T14:29:04.680Z,3.10
2022-08-30T14:31:33.626Z,3.13
2022-08-30T14:34:03.269Z,3.47
2022-08-30T14:36:33.094Z,3.10
2022-08-30T14:39:03.212Z,3.00
2022-08-30T14:41:41.311Z,3.53
2022-08-30T14:44:11.700Z,3.23
2022-08-30T14:46:40.408Z,3.10
2022-08-30T14:49:10.285Z,3.20
2022-08-30T14:51:39.589Z,2.93
2022-08-30T14:54:09.653Z,3.53
2022-08-30T14:56:38.651Z,3.00
2022-08-30T14:59:07.137Z,3.07
2022-08-30T15:01:37.251Z,3.70
2022-08-30T15:04:06.290Z,2.90
2022-08-30T15:06:35.888Z,3.70
2022-08-30T15:09:05.650Z,3.50
2022-08-30T15:11:36.774Z,3.10
2022-08-30T15:14:05.960Z,3.60
2022-08-30T15:16:36.170Z,3.30
2022-08-30T15:19:05.684Z,3.17
2022-08-30T15:21:35.097Z,3.40
2022-08-30T15:24:04.561Z,2.97
2022-08-30T15:26:32.981Z,3.80
2022-08-30T15:29:02.667Z,3.10
2022-08-30T15:31:32.224Z,3.60
2022-08-30T15:34:00.897Z,3.27
2022-08-30T15:36:29.867Z,3.37
2022-08-30T15:38:59.896Z,3.47
2022-08-30T15:41:29.100Z,3.40
2022-08-30T15:43:58.052Z,2.93
2022-08-30T15:46:29.995Z,3.27
2022-08-30T15:49:00.685Z,3.00
2022-08-30T15:51:28.947Z,3.20
2022-08-30T15:53:59.517Z,3.00
2022-08-30T15:56:27.964Z,3.00
2022-08-30T15:58:56.241Z,3.13
2022-08-30T16:01:30.591Z,3.00
2022-08-30T16:04:00.739Z,2.53
2022-08-30T16:06:30.005Z,3.00
2022-08-30T16:08:59.008Z,3.40
2022-08-30T16:11:27.333Z,2.90
2022-08-30T16:13:56.761Z,2.63
2022-08-30T16:16:25.580Z,3.53
2022-08-30T16:18:55.122Z,3.80
2022-08-30T16:21:26.368Z,2.90
2022-08-30T16:23:56.619Z,2.70
2022-08-30T16:26:25.294Z,2.70
2022-08-30T16:28:54.319Z,3.17
2022-08-30T16:31:23.028Z,3.20
2022-08-30T16:33:53.077Z,3.07
2022-08-30T16:36:21.564Z,2.90
2022-08-30T16:38:57.446Z,3.10
2022-08-30T16:41:26.739Z,2.60
2022-08-30T16:43:55.820Z,2.87
2022-08-30T16:46:27.103Z,2.93
2022-08-30T16:48:57.342Z,2.90
2022-08-30T16:51:26.706Z,2.80
2022-08-30T16:53:57.713Z,2.87
2022-08-30T16:56:27.409Z,2.93
2022-08-30T16:59:01.187Z,2.90
2022-08-30T17:01:31.569Z,2.30
2022-08-30T17:04:00.233Z,2.70
2022-08-30T17:06:30.101Z,2.73
2022-08-30T17:08:59.827Z,2.50
2022-08-30T17:11:28.435Z,2.80
2022-08-30T17:13:56.934Z,3.00
2022-08-30T17:16:28.038Z,2.73
2022-08-30T17:18:59.651Z,3.03
2022-08-30T17:21:33.234Z,2.87
2022-08-30T17:24:03.092Z,2.67
2022-08-30T17:26:32.281Z,3.00
2022-08-30T17:29:00.558Z,2.90
2022-08-30T17:31:30.656Z,2.83
2022-08-30T17:34:03.122Z,3.07
2022-08-30T17:36:32.394Z,3.20
2022-08-30T17:39:00.725Z,3.03
2022-08-30T17:41:30.431Z,2.53
2022-08-30T17:43:58.667Z,3.07
2022-08-30T17:46:28.015Z,2.30
2022-08-30T17:49:01.252Z,2.73
2022-08-30T17:51:30.446Z,2.80
2022-08-30T17:53:58.863Z,2.63
2022-08-30T17:56:35.345Z,2.63
2022-08-30T17:59:07.877Z,2.90
2022-08-30T18:01:37.665Z,2.70
2022-08-30T18:04:06.648Z,2.30
2022-08-30T18:06:35.269Z,2.60
2022-08-30T18:09:03.696Z,3.00
2022-08-30T18:11:36.492Z,2.47
2022-08-30T18:14:06.952Z,2.33
2022-08-30T18:16:43.889Z,2.50
2022-08-30T18:19:21.318Z,2.70
2022-08-30T18:21:49.531Z,2.70
2022-08-30T18:24:17.865Z,2.60
2022-08-30T18:26:46.506Z,2.87
2022-08-30T18:29:26.199Z,2.63
2022-08-30T18:31:59.605Z,2.73
2022-08-30T18:34:27.950Z,2.63
2022-08-30T18:36:56.247Z,2.40
2022-08-30T18:39:24.758Z,2.37
2022-08-30T18:41:55.494Z,2.43
2022-08-30T18:44:28.791Z,2.57
2022-08-30T18:47:00.154Z,2.43
2022-08-30T18:49:28.832Z,2.93
2022-08-30T18:51:57.088Z,2.57
2022-08-30T18:54:25.655Z,2.83
2022-08-30T18:56:53.990Z,2.57
2022-08-30T18:59:23.149Z,2.60
2022-08-30T19:02:05.128Z,2.80
2022-08-30T19:04:35.531Z,2.80
2022-08-30T19:07:05.179Z,2.40
2022-08-30T19:09:33.469Z,2.40
2022-08-30T19:12:01.698Z,2.30
2022-08-30T19:14:30.021Z,2.47
2022-08-30T19:17:02.019Z,2.37
2022-08-30T19:19:34.979Z,2.53
2022-08-30T19:22:05.295Z,2.50
2022-08-30T19:24:33.558Z,2.60
2022-08-30T19:27:03.276Z,2.67
2022-08-30T19:29:31.485Z,2.90
2022-08-30T19:31:59.738Z,2.33
2022-08-30T19:34:28.015Z,2.13
2022-08-30T19:36:57.694Z,2.30
2022-08-30T19:39:26.072Z,2.23
2022-08-30T19:41:54.401Z,2.30
2022-08-30T19:44:22.719Z,2.10
2022-08-30T19:46:52.628Z,2.60
2022-08-30T19:49:23.382Z,2.30
2022-08-30T19:51:51.714Z,2.13
2022-08-30T19:54:21.816Z,2.57
2022-08-30T19:56:50.047Z,2.00
2022-08-30T19:59:19.705Z,2.70
2022-08-30T20:01:48.446Z,1.80
2022-08-30T20:04:17.200Z,2.23
2022-08-30T20:06:46.281Z,2.20
2022-08-30T20:09:14.584Z,2.40
2022-08-30T20:11:44.180Z,2.03
2022-08-30T20:14:13.599Z,2.10
2022-08-30T20:16:41.979Z,2.20
2022-08-30T20:19:11.856Z,2.20
2022-08-30T20:21:40.217Z,2.60
2022-08-30T20:24:10.114Z,2.10
2022-08-30T20:26:38.503Z,2.40
2022-08-30T20:29:08.515Z,2.20
2022-08-30T20:31:36.813Z,2.10
2022-08-30T20:34:05.618Z,2.03
2022-08-30T20:36:34.641Z,2.20
2022-08-30T20:39:04.488Z,2.30
2022-08-30T20:41:32.739Z,2.00
2022-08-30T20:44:01.829Z,1.90
2022-08-30T20:46:34.184Z,2.03
2022-08-30T20:49:03.392Z,1.87
2022-08-30T20:51:31.771Z,2.10
2022-08-30T20:54:03.394Z,1.90
2022-08-30T20:56:31.729Z,2.13
2022-08-30T20:59:01.904Z,1.93
2022-08-30T21:01:33.385Z,2.33
2022-08-30T21:04:01.723Z,2.07
2022-08-30T21:06:35.261Z,2.13
2022-08-30T21:09:03.603Z,2.13
2022-08-30T21:11:31.872Z,2.10
2022-08-30T21:14:03.420Z,2.07
2022-08-30T21:16:33.366Z,2.50
2022-08-30T21:19:01.787Z,2.40
2022-08-30T21:21:32.150Z,2.23
2022-08-30T21:24:02.900Z,2.70
2022-08-30T21:26:31.360Z,2.37
2022-08-30T21:28:59.656Z,2.43
2022-08-30T21:31:28.988Z,2.53
2022-08-30T21:33:58.734Z,2.30
2022-08-30T21:36:45.502Z,2.40
2022-08-30T21:39:14.980Z,2.20
2022-08-30T21:41:43.293Z,2.40
2022-08-30T21:44:12.681Z,2.43
2022-08-30T21:46:41.068Z,2.33
2022-08-30T21:49:11.566Z,2.43
2022-08-30T21:51:41.352Z,2.57
2022-08-30T21:54:11.006Z,2.50
2022-08-30T21:56:39.709Z,2.57
2022-08-30T21:59:08.930Z,3.00
2022-08-30T22:01:37.857Z,2.53
2022-08-30T22:04:07.493Z,2.80
2022-08-30T22:06:38.331Z,2.90
2022-08-30T22:09:07.964Z,2.60
2022-08-30T22:11:36.720Z,2.93
2022-08-30T22:14:05.489Z,2.30
2022-08-30T22:16:33.879Z,3.10
2022-08-30T22:19:03.434Z,2.57
2022-08-30T22:21:33.355Z,2.50
2022-08-30T22:24:03.534Z,2.73
2022-08-30T22:26:32.861Z,2.63
2022-08-30T22:29:01.195Z,2.50
2022-08-30T22:31:29.534Z,2.57
2022-08-30T22:33:57.760Z,2.40
2022-08-30T22:36:31.502Z,2.60
2022-08-30T22:39:01.138Z,2.80
2022-08-30T22:41:32.698Z,2.47
2022-08-30T22:44:01.158Z,2.90
2022-08-30T22:46:34.084Z,2.40
2022-08-30T22:49:03.328Z,2.40
2022-08-30T22:51:31.540Z,2.77
2022-08-30T22:54:01.128Z,2.60
2022-08-30T22:56:31.087Z,2.33
2022-08-30T22:58:59.321Z,2.50
2022-08-30T23:01:29.071Z,2.47
2022-08-30T23:03:57.821Z,2.77
2022-08-30T23:06:26.716Z,2.50
2022-08-30T23:08:54.958Z,2.83
2022-08-30T23:11:23.333Z,2.50
2022-08-30T23:13:53.283Z,2.60
2022-08-30T23:16:22.494Z,2.80
2022-08-30T23:18:50.871Z,2.70
2022-08-30T23:21:20.421Z,2.60
2022-08-30T23:24:06.534Z,2.77
2022-08-30T23:26:52.509Z,2.60
2022-08-30T23:29:39.769Z,2.60
2022-08-30T23:32:25.705Z,3.00
2022-08-30T23:35:11.786Z,3.20
2022-08-30T23:37:57.936Z,3.30
2022-08-30T23:40:44.328Z,2.57
2022-08-30T23:43:30.253Z,2.90
2022-08-30T23:46:19.588Z,2.90
2022-08-30T23:49:05.947Z,3.10
2022-08-30T23:51:52.006Z,2.90
2022-08-30T23:54:37.968Z,2.93
2022-08-30T23:57:24.330Z,3.00
